RAVEN10 RKSG-RKSG
Flight info
| Callsign | RAVEN10 |
|---|---|
| Flight time | 0h 3m |
| Altitude | 1500 |
| Route | LOCAL |
| Aircraft | HH47/M-S/C |
Departure
| Time | 2026-04-27 03:58 |
|---|---|
| Airport | Camp Humphreys (A-511) Desiderio Army Airfield (RKSG) |
Arrival
| Time | 2026-04-27 04:01 |
|---|---|
| Airport | Camp Humphreys (A-511) Desiderio Army Airfield (RKSG) |
| Time | Latitude | Longitude | Altitude | Speed | Heading |
|---|---|---|---|---|---|
| 2026-04-27 03:53 | 36.96216 | 127.02797 | 31 ft | 0 kts | 48° |
| 2026-04-27 03:55 | 36.96214 | 127.02820 | 46 ft | 7 kts | 8° |
| 2026-04-27 03:55 | 36.96279 | 127.02892 | 82 ft | 20 kts | 309° |
| 2026-04-27 03:55 | 36.96409 | 127.02877 | 69 ft | 11 kts | 311° |
| 2026-04-27 03:56 | 36.96566 | 127.02656 | 256 ft | 67 kts | 310° |
| 2026-04-27 03:56 | 36.96996 | 127.02035 | 608 ft | 111 kts | 310° |
| 2026-04-27 03:56 | 36.97513 | 127.01302 | 615 ft | 114 kts | 312° |
| 2026-04-27 03:56 | 36.98124 | 127.00560 | 614 ft | 128 kts | 311° |
| 2026-04-27 03:57 | 36.98780 | 126.99789 | 607 ft | 132 kts | 313° |
| 2026-04-27 03:57 | 36.99021 | 126.98645 | 624 ft | 143 kts | 263° |
| 2026-04-27 03:57 | 36.98680 | 126.97505 | 597 ft | 147 kts | 235° |
| 2026-04-27 03:57 | 36.97791 | 126.96876 | 627 ft | 146 kts | 198° |
| 2026-04-27 03:58 | 36.96767 | 126.96844 | 617 ft | 153 kts | 167° |
| 2026-04-27 03:58 | 36.95790 | 126.97289 | 648 ft | 150 kts | 156° |
| 2026-04-27 03:58 | 36.94906 | 126.97849 | 663 ft | 141 kts | 151° |
| 2026-04-27 03:58 | 36.94009 | 126.98357 | 634 ft | 149 kts | 166° |
| 2026-04-27 03:59 | 36.93002 | 126.98269 | 659 ft | 144 kts | 194° |
| 2026-04-27 03:59 | 36.92222 | 126.97496 | 681 ft | 138 kts | 227° |
| 2026-04-27 03:59 | 36.91701 | 126.96512 | 673 ft | 135 kts | 236° |
| 2026-04-27 03:59 | 36.91297 | 126.95459 | 669 ft | 133 kts | 239° |
| 2026-04-27 04:00 | 36.91038 | 126.94361 | 649 ft | 137 kts | 286° |
| 2026-04-27 04:00 | 36.91833 | 126.93772 | 616 ft | 149 kts | 11° |
| 2026-04-27 04:00 | 36.92699 | 126.94378 | 618 ft | 131 kts | 36° |
| 2026-04-27 04:00 | 36.93292 | 126.95004 | 670 ft | 97 kts | 23° |
| 2026-04-27 04:01 | 36.93720 | 126.95523 | 725 ft | 80 kts | 353° |
| 2026-04-27 04:01 | 36.94092 | 126.95880 | 718 ft | 57 kts | 359° |
| 2026-04-27 04:01 | 36.94269 | 126.96085 | 683 ft | 13 kts | 342° |
| 2026-04-27 04:01 | 36.94336 | 126.96067 | 586 ft | 26 kts | 358° |
| 2026-04-27 04:02 | 36.94634 | 126.96007 | 616 ft | 60 kts | 346° |
| 2026-04-27 04:02 | 36.95024 | 126.95986 | 740 ft | 46 kts | 320° |
| 2026-04-27 04:02 | 36.95302 | 126.96010 | 696 ft | 20 kts | 194° |
| 2026-04-27 04:02 | 36.95115 | 126.95852 | 692 ft | 56 kts | 159° |
| 2026-04-27 04:03 | 36.94911 | 126.95842 | 567 ft | 23 kts | 140° |
| 2026-04-27 04:03 | 36.94858 | 126.95964 | 251 ft | 6 kts | 119° |
| 2026-04-27 04:03 | 36.94876 | 126.95982 | 194 ft | 1 kts | 122° |
| 2026-04-27 04:03 | 36.94872 | 126.95986 | 182 ft | 1 kts | 129° |
| 2026-04-27 04:04 | 36.94872 | 126.95984 | 194 ft | 1 kts | 126° |